Time;durP1;ratioP1;P1;durP2;ratioP2;P2;SDS_P1;SDS_P2;PMS_P1;PMS_P2;Temp;Humidity;BMP_temperature;BMP_pressure;BME280_temperature;BME280_humidity;BME280_pressure;Samples;Min_cycle;Max_cycle;Signal;HPM_P1;HPM_P2
2023/08/29 00:01:25;;;;;;;5.90;2.97;;;;;;;;;;5038574;28;20107;-75
2023/08/29 00:03:51;;;;;;;3.83;2.50;;;;;;;;;;5022189;28;20020;-75
2023/08/29 00:06:17;;;;;;;4.47;2.33;;;;;;;;;;5022029;28;20025;-75
2023/08/29 00:08:42;;;;;;;4.90;2.90;;;;;;;;;;5038874;28;20051;-75
2023/08/29 00:11:07;;;;;;;4.78;3.90;;;;;;;;;;5021732;28;20368;-74
2023/08/29 00:13:32;;;;;;;4.13;3.03;;;;;;;;;;5038632;28;20021;-75
2023/08/29 00:15:58;;;;;;;5.50;2.95;;;;;;;;;;5046084;28;20056;-75
2023/08/29 00:18:23;;;;;;;5.07;3.17;;;;;;;;;;5038476;28;20028;-75
2023/08/29 00:20:49;;;;;;;5.05;3.05;;;;;;;;;;5055463;28;20056;-75
2023/08/29 00:23:14;;;;;;;6.30;3.05;;;;;;;;;;5038317;28;20031;-75
2023/08/29 00:25:39;;;;;;;4.60;3.38;;;;;;;;;;5038525;28;20033;-75
2023/08/29 00:28:05;;;;;;;3.47;2.42;;;;;;;;;;5047114;28;20016;-75
2023/08/29 00:30:36;;;;;;;4.72;3.15;;;;;;;;;;5096150;28;20031;-75
2023/08/29 00:33:01;;;;;;;4.13;2.53;;;;;;;;;;5077420;28;20439;-75
2023/08/29 00:35:27;;;;;;;4.53;2.90;;;;;;;;;;5077948;28;20095;-75
2023/08/29 00:37:52;;;;;;;4.85;2.58;;;;;;;;;;5095994;28;20024;-75
2023/08/29 00:40:17;;;;;;;3.35;2.65;;;;;;;;;;5086934;28;20025;-74
2023/08/29 00:42:42;;;;;;;3.60;2.22;;;;;;;;;;5066709;28;20032;-75
2023/08/29 00:45:08;;;;;;;3.58;2.22;;;;;;;;;;5083199;28;20086;-74
2023/08/29 00:47:33;;;;;;;4.32;3.13;;;;;;;;;;5080182;28;20375;-75
2023/08/29 00:49:59;;;;;;;4.13;3.55;;;;;;;;;;5095559;28;20497;-75
2023/08/29 00:52:24;;;;;;;3.65;2.33;;;;;;;;;;5076732;28;20069;-75
2023/08/29 00:54:50;;;;;;;4.07;2.72;;;;;;;;;;5057369;28;20574;-75
2023/08/29 00:57:15;;;;;;;4.35;2.90;;;;;;;;;;5074345;28;20028;-75
2023/08/29 00:59:40;;;;;;;4.75;2.95;;;;;;;;;;5077224;28;20039;-75
2023/08/29 01:02:06;;;;;;;6.30;3.80;;;;;;;;;;5061070;28;20478;-75
2023/08/29 01:04:31;;;;;;;4.95;3.47;;;;;;;;;;5057459;28;20483;-75
2023/08/29 01:06:57;;;;;;;6.07;3.58;;;;;;;;;;5083451;28;20020;-75
2023/08/29 01:09:23;;;;;;;5.38;2.88;;;;;;;;;;5060284;28;20508;-75
2023/08/29 01:12:06;;;;;;;6.15;2.83;;;;;;;;;;5076735;28;20024;-75
2023/08/29 01:14:54;;;;;;;5.28;3.17;;;;;;;;;;5095411;28;20063;-75
2023/08/29 01:17:26;;;;;;;6.20;3.88;;;;;;;;;;5095140;28;20488;-75
2023/08/29 01:19:52;;;;;;;5.82;3.08;;;;;;;;;;5076845;28;20020;-75
2023/08/29 01:22:34;;;;;;;3.88;2.67;;;;;;;;;;5077100;28;20024;-75
2023/08/29 01:25:18;;;;;;;3.58;2.28;;;;;;;;;;5077090;28;20436;-75
2023/08/29 01:27:44;;;;;;;5.07;3.10;;;;;;;;;;5076744;28;20047;-75
2023/08/29 01:30:10;;;;;;;5.05;3.33;;;;;;;;;;5077435;28;20164;-74
2023/08/29 01:32:36;;;;;;;5.53;3.10;;;;;;;;;;5095307;28;20027;-75
2023/08/29 01:35:02;;;;;;;4.10;2.17;;;;;;;;;;5076932;28;20028;-75
2023/08/29 01:37:27;;;;;;;5.47;3.38;;;;;;;;;;5076765;28;20024;-75
2023/08/29 01:39:52;;;;;;;4.32;2.78;;;;;;;;;;5094406;28;20103;-75
2023/08/29 01:42:18;;;;;;;5.93;4.20;;;;;;;;;;5076328;28;20394;-75
2023/08/29 01:44:43;;;;;;;3.53;2.78;;;;;;;;;;5076535;28;20115;-75
2023/08/29 01:47:08;;;;;;;4.00;2.70;;;;;;;;;;5094227;28;20020;-75
2023/08/29 01:49:34;;;;;;;4.03;2.70;;;;;;;;;;5076691;28;20020;-75
2023/08/29 01:52:00;;;;;;;4.50;3.03;;;;;;;;;;5077009;28;20023;-75
2023/08/29 01:54:26;;;;;;;7.43;4.53;;;;;;;;;;5093929;28;20457;-74
2023/08/29 01:56:53;;;;;;;4.15;2.45;;;;;;;;;;5076687;28;20026;-75
2023/08/29 01:59:18;;;;;;;3.45;2.90;;;;;;;;;;5075947;28;20493;-74
2023/08/29 02:01:44;;;;;;;4.55;2.97;;;;;;;;;;5076379;28;20028;-75
2023/08/29 02:04:09;;;;;;;3.28;2.60;;;;;;;;;;5094052;28;20024;-75
2023/08/29 02:06:34;;;;;;;5.97;3.58;;;;;;;;;;5076605;28;20024;-75
2023/08/29 02:09:00;;;;;;;5.53;2.70;;;;;;;;;;5094409;28;20028;-74
2023/08/29 02:11:25;;;;;;;4.90;2.83;;;;;;;;;;5076279;28;20027;-75
2023/08/29 02:13:50;;;;;;;4.78;3.15;;;;;;;;;;5094153;28;20023;-75
2023/08/29 02:16:16;;;;;;;5.35;3.38;;;;;;;;;;5076825;28;20016;-75
2023/08/29 02:18:41;;;;;;;4.25;2.92;;;;;;;;;;5094335;28;20084;-75
2023/08/29 02:21:06;;;;;;;4.25;2.60;;;;;;;;;;5075993;28;20051;-75
2023/08/29 02:23:31;;;;;;;5.25;3.20;;;;;;;;;;5076560;28;20028;-75
2023/08/29 02:26:04;;;;;;;4.95;3.00;;;;;;;;;;5075734;28;20075;-75
2023/08/29 02:28:35;;;;;;;6.30;3.28;;;;;;;;;;5076067;28;20057;-75
2023/08/29 02:31:07;;;;;;;5.03;2.83;;;;;;;;;;5059626;28;20027;-74
2023/08/29 02:33:34;;;;;;;4.40;3.13;;;;;;;;;;5093975;28;20066;-75
2023/08/29 02:35:59;;;;;;;3.72;2.50;;;;;;;;;;5094159;28;20470;-75
2023/08/29 02:38:25;;;;;;;5.32;3.20;;;;;;;;;;5076050;28;20031;-75
2023/08/29 02:40:50;;;;;;;3.47;2.50;;;;;;;;;;5076128;28;20077;-75
2023/08/29 02:43:15;;;;;;;4.35;2.60;;;;;;;;;;5094295;28;20538;-75
2023/08/29 02:45:40;;;;;;;4.82;2.30;;;;;;;;;;5076549;28;20028;-75
2023/08/29 02:48:06;;;;;;;6.03;3.95;;;;;;;;;;5093133;28;20047;-74
2023/08/29 02:50:35;;;;;;;6.85;3.65;;;;;;;;;;5075045;28;20095;-74
2023/08/29 02:53:00;;;;;;;5.63;3.13;;;;;;;;;;5074137;28;20555;-75
2023/08/29 02:55:25;;;;;;;5.32;3.40;;;;;;;;;;5055734;28;20042;-75
2023/08/29 02:57:50;;;;;;;5.43;3.13;;;;;;;;;;5055732;28;20024;-75
2023/08/29 03:00:16;;;;;;;5.38;3.10;;;;;;;;;;5055973;28;20024;-74
2023/08/29 03:02:42;;;;;;;4.70;2.83;;;;;;;;;;5073129;28;20146;-75
2023/08/29 03:05:07;;;;;;;4.97;2.80;;;;;;;;;;5074236;28;20021;-75
2023/08/29 03:07:33;;;;;;;5.13;2.80;;;;;;;;;;5073925;28;20133;-75
2023/08/29 03:09:58;;;;;;;3.92;2.22;;;;;;;;;;5066847;28;20048;-75
2023/08/29 03:12:23;;;;;;;4.72;2.58;;;;;;;;;;5097891;28;20043;-74
2023/08/29 03:14:55;;;;;;;4.40;2.65;;;;;;;;;;5097637;28;20027;-75
2023/08/29 03:17:21;;;;;;;4.13;2.60;;;;;;;;;;5080389;28;20520;-75
2023/08/29 03:19:47;;;;;;;4.63;2.70;;;;;;;;;;5075570;28;20150;-74
2023/08/29 03:22:13;;;;;;;5.03;2.95;;;;;;;;;;5068267;28;20485;-74
2023/08/29 03:24:38;;;;;;;4.60;2.60;;;;;;;;;;5083504;28;20012;-72
2023/08/29 03:27:04;;;;;;;5.70;3.53;;;;;;;;;;5098298;28;20029;-75
2023/08/29 03:29:29;;;;;;;4.63;2.83;;;;;;;;;;5048852;28;20027;-75
2023/08/29 03:31:54;;;;;;;3.90;2.53;;;;;;;;;;5041302;28;20025;-75
2023/08/29 03:34:19;;;;;;;3.60;2.47;;;;;;;;;;5059368;28;20029;-75
2023/08/29 03:36:45;;;;;;;4.05;3.08;;;;;;;;;;5088561;28;20390;-75
2023/08/29 03:39:10;;;;;;;4.57;3.05;;;;;;;;;;5079738;28;20056;-75
2023/08/29 03:41:37;;;;;;;8.63;4.03;;;;;;;;;;5059449;28;20039;-75
2023/08/29 03:44:03;;;;;;;6.05;3.30;;;;;;;;;;5059216;28;20059;-75
2023/08/29 03:46:28;;;;;;;6.35;3.28;;;;;;;;;;5077195;28;20024;-75
2023/08/29 03:48:53;;;;;;;4.68;2.65;;;;;;;;;;5042197;28;20021;-75
2023/08/29 03:51:19;;;;;;;3.97;2.53;;;;;;;;;;5077197;28;20162;-75
2023/08/29 03:53:44;;;;;;;4.43;2.97;;;;;;;;;;5077218;28;20020;-75
2023/08/29 03:56:09;;;;;;;4.25;2.85;;;;;;;;;;5076732;28;20080;-75
2023/08/29 03:58:35;;;;;;;5.40;2.90;;;;;;;;;;5042622;28;20056;-75
2023/08/29 04:01:03;;;;;;;6.13;4.03;;;;;;;;;;5059040;28;20024;-75
2023/08/29 04:03:28;;;;;;;6.13;3.55;;;;;;;;;;5059649;28;20020;-75
2023/08/29 04:05:54;;;;;;;7.03;3.95;;;;;;;;;;5077026;28;20506;-75
2023/08/29 04:08:19;;;;;;;4.78;3.33;;;;;;;;;;5076661;28;20082;-75
2023/08/29 04:10:45;;;;;;;5.32;3.10;;;;;;;;;;5042548;28;20021;-75
2023/08/29 04:13:10;;;;;;;4.32;2.38;;;;;;;;;;5042037;28;20029;-75
2023/08/29 04:15:36;;;;;;;4.18;2.63;;;;;;;;;;5042166;28;20027;-75
2023/08/29 04:18:02;;;;;;;4.55;2.67;;;;;;;;;;5076105;28;20112;-75
2023/08/29 04:20:28;;;;;;;4.53;2.78;;;;;;;;;;5058691;28;20429;-75
2023/08/29 04:22:54;;;;;;;9.15;3.42;;;;;;;;;;5057685;28;20119;-75
2023/08/29 04:25:19;;;;;;;6.63;3.63;;;;;;;;;;5076050;28;20020;-75
2023/08/29 04:27:46;;;;;;;5.82;3.80;;;;;;;;;;5076462;28;20440;-75
2023/08/29 04:30:12;;;;;;;5.25;3.20;;;;;;;;;;5058428;28;20029;-75
2023/08/29 04:32:37;;;;;;;5.15;3.13;;;;;;;;;;5058386;28;20027;-75
2023/08/29 04:35:05;;;;;;;5.82;3.15;;;;;;;;;;5076547;28;20028;-75
2023/08/29 04:37:31;;;;;;;5.45;3.42;;;;;;;;;;5041869;28;20035;-75
2023/08/29 04:39:56;;;;;;;7.13;3.58;;;;;;;;;;5058003;28;20025;-75
2023/08/29 04:42:21;;;;;;;7.22;3.65;;;;;;;;;;5058269;28;20021;-75
2023/08/29 04:44:46;;;;;;;5.47;3.10;;;;;;;;;;5057786;28;20118;-75
2023/08/29 04:47:12;;;;;;;6.20;3.45;;;;;;;;;;5058718;28;20078;-75
2023/08/29 04:49:37;;;;;;;7.15;4.10;;;;;;;;;;5041519;28;20025;-76
2023/08/29 04:52:03;;;;;;;7.80;4.30;;;;;;;;;;5058284;28;20070;-75
2023/08/29 04:54:28;;;;;;;7.93;4.43;;;;;;;;;;5058076;28;20078;-75
2023/08/29 04:56:53;;;;;;;6.82;3.67;;;;;;;;;;5076141;28;20059;-75
2023/08/29 04:59:19;;;;;;;5.90;3.88;;;;;;;;;;5058023;28;20440;-75
2023/08/29 05:01:44;;;;;;;6.00;3.05;;;;;;;;;;5075598;28;20071;-75
2023/08/29 05:04:10;;;;;;;5.38;3.45;;;;;;;;;;5058240;28;20027;-75
2023/08/29 05:06:36;;;;;;;7.55;3.90;;;;;;;;;;5057937;28;20034;-75
2023/08/29 05:09:01;;;;;;;5.47;2.80;;;;;;;;;;5058257;28;20032;-75
2023/08/29 05:11:26;;;;;;;6.00;3.28;;;;;;;;;;5041397;28;20066;-75
2023/08/29 05:13:52;;;;;;;6.50;3.47;;;;;;;;;;5058346;28;20028;-75
2023/08/29 05:16:17;;;;;;;7.85;5.05;;;;;;;;;;5057987;28;20024;-75
2023/08/29 05:18:42;;;;;;;9.63;4.88;;;;;;;;;;5041147;28;20119;-75
2023/08/29 05:21:07;;;;;;;7.05;4.15;;;;;;;;;;5057392;28;20024;-75
2023/08/29 05:23:33;;;;;;;5.63;3.53;;;;;;;;;;5075811;28;20024;-75
2023/08/29 05:25:58;;;;;;;6.78;3.25;;;;;;;;;;5076138;28;20142;-75
2023/08/29 05:28:23;;;;;;;5.90;3.50;;;;;;;;;;5058159;28;20024;-75
2023/08/29 05:30:49;;;;;;;6.95;3.58;;;;;;;;;;5040895;28;20036;-75
2023/08/29 05:33:14;;;;;;;5.82;3.35;;;;;;;;;;5058150;28;20025;-75
2023/08/29 05:35:39;;;;;;;6.38;3.58;;;;;;;;;;5057788;28;20028;-75
2023/08/29 05:38:04;;;;;;;6.95;4.28;;;;;;;;;;5041250;28;20024;-75
2023/08/29 05:40:30;;;;;;;7.72;3.65;;;;;;;;;;5076034;28;20086;-75
2023/08/29 05:42:55;;;;;;;7.95;4.05;;;;;;;;;;5041349;28;20098;-75
2023/08/29 05:45:20;;;;;;;6.18;4.00;;;;;;;;;;5057787;28;20024;-75
2023/08/29 05:47:46;;;;;;;6.93;3.60;;;;;;;;;;5058196;28;20497;-75
2023/08/29 05:50:11;;;;;;;8.07;4.57;;;;;;;;;;5076060;28;20031;-75
2023/08/29 05:52:36;;;;;;;9.90;4.30;;;;;;;;;;5057869;28;20020;-75
2023/08/29 05:55:02;;;;;;;7.18;4.07;;;;;;;;;;5058460;28;20111;-74
2023/08/29 05:57:27;;;;;;;7.53;4.05;;;;;;;;;;5059309;28;20078;-75
2023/08/29 05:59:53;;;;;;;7.03;4.32;;;;;;;;;;5058134;28;20025;-75
2023/08/29 06:02:19;;;;;;;6.93;4.03;;;;;;;;;;5041709;28;20486;-75
2023/08/29 06:04:44;;;;;;;12.48;6.00;;;;;;;;;;5058005;28;20058;-75
2023/08/29 06:07:10;;;;;;;14.15;6.88;;;;;;;;;;5040654;28;20020;-74
2023/08/29 06:09:35;;;;;;;9.80;5.20;;;;;;;;;;5075878;28;20113;-74
2023/08/29 06:12:00;;;;;;;10.48;5.65;;;;;;;;;;5074815;28;20471;-74
2023/08/29 06:14:26;;;;;;;9.75;4.82;;;;;;;;;;5039797;28;20062;-74
2023/08/29 06:16:51;;;;;;;12.95;7.60;;;;;;;;;;5075103;28;20035;-75
2023/08/29 06:19:17;;;;;;;17.35;8.85;;;;;;;;;;5057126;28;20363;-75
2023/08/29 06:21:42;;;;;;;20.23;9.05;;;;;;;;;;5056233;28;20505;-75
2023/08/29 06:24:08;;;;;;;14.25;7.60;;;;;;;;;;5075823;28;20027;-74
2023/08/29 06:26:33;;;;;;;18.55;8.48;;;;;;;;;;5088736;28;20032;-75
2023/08/29 06:28:58;;;;;;;16.42;8.07;;;;;;;;;;5056403;28;20031;-75
2023/08/29 06:31:24;;;;;;;15.60;7.38;;;;;;;;;;5039200;28;20028;-75
2023/08/29 06:33:49;;;;;;;13.80;6.78;;;;;;;;;;5055280;28;20033;-75
2023/08/29 06:36:14;;;;;;;12.70;6.22;;;;;;;;;;5056380;28;20028;-75
2023/08/29 06:38:40;;;;;;;13.25;7.57;;;;;;;;;;5039311;28;20028;-75
2023/08/29 06:41:05;;;;;;;20.17;9.85;;;;;;;;;;5073531;28;20020;-75
2023/08/29 06:43:30;;;;;;;21.55;8.60;;;;;;;;;;5038976;28;20157;-75
2023/08/29 06:45:56;;;;;;;20.83;9.15;;;;;;;;;;5061240;28;20055;-75
2023/08/29 06:48:21;;;;;;;18.38;9.18;;;;;;;;;;5052906;28;20486;-75
2023/08/29 06:50:46;;;;;;;17.75;9.45;;;;;;;;;;5053838;28;20066;-76
2023/08/29 06:53:12;;;;;;;21.02;9.40;;;;;;;;;;5049770;28;20016;-75
2023/08/29 06:55:37;;;;;;;14.75;7.43;;;;;;;;;;5049065;28;20069;-75
2023/08/29 06:58:04;;;;;;;18.08;8.75;;;;;;;;;;5053453;28;20029;-75
2023/08/29 07:00:31;;;;;;;18.23;8.68;;;;;;;;;;5020434;28;20024;-76
2023/08/29 07:02:56;;;;;;;13.85;7.97;;;;;;;;;;5053164;28;20025;-76
2023/08/29 07:05:21;;;;;;;14.23;7.70;;;;;;;;;;5034960;28;20028;-75
2023/08/29 07:07:47;;;;;;;11.00;5.80;;;;;;;;;;5035545;28;20493;-76
2023/08/29 07:10:12;;;;;;;12.60;5.43;;;;;;;;;;5018879;28;20033;-75
2023/08/29 07:12:37;;;;;;;13.82;7.82;;;;;;;;;;5053668;28;20102;-76
2023/08/29 07:15:03;;;;;;;12.25;6.22;;;;;;;;;;5053524;28;20021;-75
2023/08/29 07:17:28;;;;;;;14.18;7.28;;;;;;;;;;5053391;28;20368;-75
2023/08/29 07:19:54;;;;;;;13.55;7.05;;;;;;;;;;5053434;28;20017;-75
2023/08/29 07:22:19;;;;;;;13.13;6.50;;;;;;;;;;5035015;28;20056;-75
2023/08/29 07:24:44;;;;;;;10.13;6.82;;;;;;;;;;5053524;28;20415;-74
2023/08/29 07:27:10;;;;;;;7.80;5.18;;;;;;;;;;5035822;28;20028;-75
2023/08/29 07:29:35;;;;;;;8.05;5.03;;;;;;;;;;5019389;28;20116;-75
2023/08/29 07:32:00;;;;;;;8.25;4.28;;;;;;;;;;5086642;28;20470;-75
2023/08/29 07:34:26;;;;;;;6.05;3.70;;;;;;;;;;5093619;28;20028;-76
2023/08/29 07:36:51;;;;;;;8.18;4.28;;;;;;;;;;5075770;28;20020;-75
2023/08/29 07:39:18;;;;;;;7.18;4.55;;;;;;;;;;5093735;28;20020;-75
2023/08/29 07:41:45;;;;;;;6.30;4.00;;;;;;;;;;5076126;28;20027;-75
2023/08/29 07:44:10;;;;;;;10.57;5.07;;;;;;;;;;5058301;28;20020;-75
2023/08/29 07:46:35;;;;;;;6.97;4.30;;;;;;;;;;5087425;28;20024;-75
2023/08/29 07:49:00;;;;;;;8.98;6.35;;;;;;;;;;5056690;28;20036;-74
2023/08/29 07:51:26;;;;;;;9.50;5.10;;;;;;;;;;5090228;28;20016;-75
2023/08/29 07:53:51;;;;;;;9.50;4.93;;;;;;;;;;5074546;28;20019;-74
2023/08/29 07:56:17;;;;;;;7.47;5.10;;;;;;;;;;5074422;28;20027;-74
2023/08/29 07:58:42;;;;;;;9.05;4.95;;;;;;;;;;5077668;28;20024;-74
2023/08/29 08:01:07;;;;;;;7.57;5.20;;;;;;;;;;5096809;28;20063;-74
2023/08/29 08:03:33;;;;;;;5.03;3.65;;;;;;;;;;5062329;28;20031;-73
2023/08/29 08:05:58;;;;;;;6.65;4.85;;;;;;;;;;5075745;28;20470;-73
2023/08/29 08:08:23;;;;;;;6.97;4.35;;;;;;;;;;5041461;28;20031;-73
2023/08/29 08:10:49;;;;;;;4.80;3.35;;;;;;;;;;5076005;28;20020;-73
2023/08/29 08:13:14;;;;;;;7.68;5.63;;;;;;;;;;5075851;28;20461;-73
2023/08/29 08:15:39;;;;;;;6.75;4.20;;;;;;;;;;5053377;28;20112;-73
2023/08/29 08:18:05;;;;;;;7.55;4.55;;;;;;;;;;5050165;28;20032;-73
2023/08/29 08:20:30;;;;;;;6.70;3.70;;;;;;;;;;5060846;28;20028;-74
2023/08/29 08:22:55;;;;;;;5.20;3.53;;;;;;;;;;5095859;28;20023;-73
2023/08/29 08:25:21;;;;;;;10.95;4.25;;;;;;;;;;5078365;28;20473;-73
2023/08/29 08:27:46;;;;;;;8.77;4.40;;;;;;;;;;5077513;28;20490;-73
2023/08/29 08:30:11;;;;;;;5.60;3.92;;;;;;;;;;5095779;28;20028;-73
2023/08/29 08:32:37;;;;;;;6.55;4.15;;;;;;;;;;5077477;28;20035;-73
2023/08/29 08:35:06;;;;;;;5.20;3.70;;;;;;;;;;5095268;28;20129;-73
2023/08/29 08:37:33;;;;;;;7.13;4.00;;;;;;;;;;5077829;28;20421;-73
2023/08/29 08:39:58;;;;;;;7.18;3.67;;;;;;;;;;5095512;28;20020;-73
2023/08/29 08:42:24;;;;;;;7.93;3.75;;;;;;;;;;5095107;28;20024;-73
2023/08/29 08:44:49;;;;;;;7.78;3.55;;;;;;;;;;5095096;28;20109;-73
2023/08/29 08:47:14;;;;;;;5.10;2.90;;;;;;;;;;5055233;28;20044;-73
2023/08/29 08:49:43;;;;;;;5.47;3.08;;;;;;;;;;5056981;28;20407;-73
2023/08/29 08:52:10;;;;;;;3.55;2.50;;;;;;;;;;5040737;28;20094;-73
2023/08/29 08:54:35;;;;;;;6.85;3.35;;;;;;;;;;5093475;28;20020;-73
2023/08/29 08:57:01;;;;;;;5.68;3.70;;;;;;;;;;5094623;28;20058;-73
2023/08/29 08:59:26;;;;;;;4.88;2.97;;;;;;;;;;5077332;28;20020;-74
2023/08/29 09:01:54;;;;;;;8.90;4.50;;;;;;;;;;5076914;28;20028;-73
2023/08/29 09:04:20;;;;;;;5.32;2.83;;;;;;;;;;5077120;28;20024;-73
2023/08/29 09:06:45;;;;;;;5.45;3.28;;;;;;;;;;5094775;28;20028;-73
2023/08/29 09:09:17;;;;;;;3.58;2.35;;;;;;;;;;5076422;28;20019;-73
2023/08/29 09:11:43;;;;;;;4.70;2.30;;;;;;;;;;5077150;28;20019;-73
2023/08/29 09:14:08;;;;;;;5.28;2.35;;;;;;;;;;5076469;28;20032;-73
2023/08/29 09:16:37;;;;;;;4.05;1.90;;;;;;;;;;5058404;28;20039;-73
2023/08/29 09:19:06;;;;;;;2.70;1.95;;;;;;;;;;5056706;28;20035;-73
2023/08/29 09:21:31;;;;;;;5.50;2.25;;;;;;;;;;5056798;28;20024;-73
2023/08/29 09:23:56;;;;;;;3.65;2.47;;;;;;;;;;5057201;28;20028;-73
2023/08/29 09:26:30;;;;;;;2.63;1.95;;;;;;;;;;5067246;28;20079;-73
2023/08/29 09:28:55;;;;;;;4.85;2.30;;;;;;;;;;5054917;28;20039;-73
2023/08/29 09:31:20;;;;;;;4.60;2.70;;;;;;;;;;5055796;28;20505;-73
2023/08/29 09:33:47;;;;;;;5.50;2.75;;;;;;;;;;5057065;28;20025;-73
2023/08/29 09:36:12;;;;;;;4.97;2.30;;;;;;;;;;5059772;28;20017;-72
2023/08/29 09:38:40;;;;;;;6.30;2.42;;;;;;;;;;5100443;28;20051;-72
2023/08/29 09:41:12;;;;;;;5.32;2.60;;;;;;;;;;5091580;28;20073;-74
2023/08/29 09:43:45;;;;;;;4.70;2.30;;;;;;;;;;5077069;28;20024;-74
2023/08/29 09:46:10;;;;;;;7.18;1.92;;;;;;;;;;5059537;28;20022;-73
2023/08/29 09:48:36;;;;;;;7.38;2.58;;;;;;;;;;5094190;28;20389;-72
2023/08/29 09:51:03;;;;;;;3.13;1.80;;;;;;;;;;5093738;28;20031;-73
2023/08/29 09:53:32;;;;;;;4.80;1.70;;;;;;;;;;5075836;28;20027;-73
2023/08/29 09:56:09;;;;;;;3.85;2.40;;;;;;;;;;5093472;28;20462;-73
2023/08/29 09:58:37;;;;;;;2.25;1.65;;;;;;;;;;5093930;28;20032;-73
2023/08/29 10:01:04;;;;;;;4.20;2.30;;;;;;;;;;5048629;28;20561;-73
2023/08/29 10:03:30;;;;;;;2.70;1.73;;;;;;;;;;5038241;28;20032;-73
2023/08/29 10:05:56;;;;;;;3.75;1.63;;;;;;;;;;5057372;28;20054;-73
2023/08/29 10:08:36;;;;;;;3.42;1.58;;;;;;;;;;5055975;28;20031;-73
2023/08/29 10:11:01;;;;;;;1.80;1.40;;;;;;;;;;5055146;28;20056;-73
2023/08/29 10:13:27;;;;;;;2.25;1.65;;;;;;;;;;5038258;28;20055;-73
2023/08/29 10:15:52;;;;;;;3.10;1.70;;;;;;;;;;5055077;28;20025;-74
2023/08/29 10:18:18;;;;;;;4.20;1.70;;;;;;;;;;5038762;28;20024;-73
2023/08/29 10:20:44;;;;;;;2.03;1.42;;;;;;;;;;5054434;28;20085;-73
2023/08/29 10:23:10;;;;;;;2.67;1.60;;;;;;;;;;5054852;28;20056;-73
2023/08/29 10:25:38;;;;;;;2.00;1.50;;;;;;;;;;5038629;28;20056;-73
2023/08/29 10:28:05;;;;;;;2.70;1.60;;;;;;;;;;5054687;28;20027;-73
2023/08/29 10:30:31;;;;;;;2.78;1.60;;;;;;;;;;5054828;28;20087;-74
2023/08/29 10:32:57;;;;;;;4.28;1.75;;;;;;;;;;5054408;28;20027;-74
2023/08/29 10:35:22;;;;;;;2.05;1.10;;;;;;;;;;5072228;28;20481;-73
2023/08/29 10:37:51;;;;;;;3.17;1.35;;;;;;;;;;5063042;28;20047;-73
2023/08/29 10:40:17;;;;;;;2.13;1.55;;;;;;;;;;5075274;28;20024;-73
2023/08/29 10:42:56;;;;;;;2.85;1.30;;;;;;;;;;5058228;28;20012;-73
2023/08/29 10:45:41;;;;;;;2.03;1.42;;;;;;;;;;5058595;28;20024;-73
2023/08/29 10:48:06;;;;;;;1.83;1.33;;;;;;;;;;5074450;28;20042;-73
2023/08/29 10:50:33;;;;;;;3.15;1.95;;;;;;;;;;5074677;28;20037;-73
2023/08/29 10:52:59;;;;;;;1.75;1.30;;;;;;;;;;5093027;28;20025;-73
2023/08/29 10:55:30;;;;;;;3.03;2.10;;;;;;;;;;5074660;28;20405;-73
2023/08/29 10:57:58;;;;;;;2.60;1.80;;;;;;;;;;5046522;28;20028;-73
2023/08/29 11:00:51;;;;;;;4.15;1.65;;;;;;;;;;5038365;28;20044;-73
2023/08/29 11:03:49;;;;;;;2.42;1.30;;;;;;;;;;5038112;28;20023;-73
2023/08/29 11:06:16;;;;;;;3.65;1.60;;;;;;;;;;5054743;28;20025;-74
2023/08/29 11:08:42;;;;;;;2.35;1.40;;;;;;;;;;5054869;28;20039;-73
2023/08/29 11:11:21;;;;;;;6.15;1.45;;;;;;;;;;5078046;28;20012;-74
2023/08/29 11:14:19;;;;;;;2.90;1.38;;;;;;;;;;5057280;28;20031;-73
2023/08/29 11:17:10;;;;;;;3.25;1.50;;;;;;;;;;5024926;28;20027;-73
2023/08/29 11:19:36;;;;;;;2.80;1.55;;;;;;;;;;5074912;28;20024;-73
2023/08/29 11:22:02;;;;;;;4.75;1.70;;;;;;;;;;5074505;28;20020;-73
2023/08/29 11:24:27;;;;;;;9.23;1.52;;;;;;;;;;5074709;28;20036;-73
2023/08/29 11:26:57;;;;;;;2.85;1.48;;;;;;;;;;5074431;28;20054;-73
2023/08/29 11:29:22;;;;;;;2.28;1.20;;;;;;;;;;5092241;28;20028;-74
2023/08/29 11:31:47;;;;;;;2.92;1.40;;;;;;;;;;5076871;28;20027;-74
2023/08/29 11:34:20;;;;;;;3.30;1.58;;;;;;;;;;5102131;22;20620;-75
2023/08/29 11:36:48;;;;;;;3.25;1.33;;;;;;;;;;5075231;28;20024;-76
2023/08/29 11:39:14;;;;;;;2.70;1.10;;;;;;;;;;5075465;28;20121;-75
2023/08/29 11:41:42;;;;;;;2.50;1.40;;;;;;;;;;5075351;28;20113;-76
2023/08/29 11:44:08;;;;;;;1.48;1.10;;;;;;;;;;5075437;28;20017;-76
2023/08/29 11:46:33;;;;;;;1.88;1.55;;;;;;;;;;5075464;28;20224;-76
2023/08/29 11:48:59;;;;;;;3.20;1.67;;;;;;;;;;5075649;28;20312;-76
2023/08/29 11:51:25;;;;;;;2.85;1.50;;;;;;;;;;5074773;28;20021;-76
2023/08/29 11:53:50;;;;;;;2.22;1.42;;;;;;;;;;5075193;28;20111;-76
2023/08/29 11:56:15;;;;;;;2.13;1.42;;;;;;;;;;5076377;28;20455;-76
2023/08/29 11:58:41;;;;;;;2.70;1.48;;;;;;;;;;5076873;28;20471;-76
2023/08/29 12:01:07;;;;;;;2.28;1.30;;;;;;;;;;5075025;28;20074;-76
2023/08/29 12:03:37;;;;;;;2.42;1.40;;;;;;;;;;5058414;28;20028;-76
2023/08/29 12:06:04;;;;;;;2.83;1.48;;;;;;;;;;5075290;28;20056;-76
2023/08/29 12:08:37;;;;;;;2.97;1.60;;;;;;;;;;5076130;28;20031;-76
2023/08/29 12:11:02;;;;;;;2.80;1.48;;;;;;;;;;5075332;28;20024;-76
2023/08/29 12:13:27;;;;;;;3.13;1.60;;;;;;;;;;5077306;28;20025;-76
2023/08/29 12:15:53;;;;;;;2.97;2.17;;;;;;;;;;5076712;28;20516;-76
2023/08/29 12:18:23;;;;;;;2.80;1.55;;;;;;;;;;5075045;28;20028;-76
2023/08/29 12:20:48;;;;;;;2.88;1.38;;;;;;;;;;5057323;28;20021;-76
2023/08/29 12:23:25;;;;;;;2.33;1.33;;;;;;;;;;5074883;28;20402;-76
2023/08/29 12:25:50;;;;;;;2.78;1.60;;;;;;;;;;5075153;28;20498;-75
2023/08/29 12:28:16;;;;;;;2.20;1.20;;;;;;;;;;5075870;28;20055;-76
2023/08/29 12:30:41;;;;;;;2.63;1.17;;;;;;;;;;5075881;28;20020;-76
2023/08/29 12:33:06;;;;;;;3.22;1.13;;;;;;;;;;5075828;28;20044;-76
2023/08/29 12:35:32;;;;;;;1.88;1.20;;;;;;;;;;5074297;28;20073;-76
2023/08/29 12:37:57;;;;;;;3.17;1.30;;;;;;;;;;5075512;28;20043;-76
2023/08/29 12:40:22;;;;;;;3.10;1.80;;;;;;;;;;5074358;28;20107;-76
2023/08/29 12:42:49;;;;;;;1.90;1.10;;;;;;;;;;5074530;28;20471;-76
2023/08/29 12:45:15;;;;;;;3.97;1.30;;;;;;;;;;5073486;28;20119;-76
2023/08/29 12:47:40;;;;;;;1.70;1.10;;;;;;;;;;5075577;28;20028;-76
2023/08/29 12:50:06;;;;;;;3.58;1.17;;;;;;;;;;5075608;28;20028;-76
2023/08/29 12:52:31;;;;;;;1.95;1.25;;;;;;;;;;5073976;28;20032;-76
2023/08/29 12:54:56;;;;;;;2.75;1.25;;;;;;;;;;5073926;28;20086;-76
2023/08/29 12:57:22;;;;;;;1.98;1.17;;;;;;;;;;5074306;28;20043;-76
2023/08/29 12:59:47;;;;;;;3.03;1.20;;;;;;;;;;5071804;28;20032;-76
2023/08/29 13:02:12;;;;;;;3.22;1.67;;;;;;;;;;5071532;28;20032;-76
2023/08/29 13:04:38;;;;;;;1.67;1.02;;;;;;;;;;5084000;28;20016;-76
2023/08/29 13:07:03;;;;;;;2.63;1.05;;;;;;;;;;5094908;28;20481;-76
2023/08/29 13:09:28;;;;;;;1.95;1.35;;;;;;;;;;5093196;28;20020;-76
2023/08/29 13:11:54;;;;;;;2.90;1.20;;;;;;;;;;5094010;28;20423;-76
2023/08/29 13:14:19;;;;;;;1.88;0.98;;;;;;;;;;5094059;28;20044;-76
2023/08/29 13:16:44;;;;;;;2.08;1.50;;;;;;;;;;5093918;28;20067;-76
2023/08/29 13:19:10;;;;;;;5.75;1.20;;;;;;;;;;5094379;28;20393;-76
2023/08/29 13:21:35;;;;;;;1.30;1.00;;;;;;;;;;5093760;28;20428;-76
2023/08/29 13:24:00;;;;;;;2.28;1.00;;;;;;;;;;5094000;28;20059;-76
2023/08/29 13:26:26;;;;;;;1.17;1.00;;;;;;;;;;5094115;28;20446;-76
2023/08/29 13:28:53;;;;;;;1.42;1.10;;;;;;;;;;5095353;28;20447;-76
2023/08/29 13:31:19;;;;;;;5.63;1.67;;;;;;;;;;5093854;28;20394;-76
2023/08/29 13:33:45;;;;;;;1.80;0.80;;;;;;;;;;5093667;28;20055;-76
2023/08/29 13:36:11;;;;;;;1.60;1.10;;;;;;;;;;5076955;28;20442;-76
2023/08/29 13:38:36;;;;;;;1.98;1.10;;;;;;;;;;5094415;28;20031;-76
2023/08/29 13:41:02;;;;;;;1.58;1.20;;;;;;;;;;5095106;28;20020;-76
2023/08/29 13:43:27;;;;;;;2.17;1.30;;;;;;;;;;5093685;28;20107;-76
2023/08/29 13:45:52;;;;;;;2.50;1.70;;;;;;;;;;5093696;28;20367;-76
2023/08/29 13:48:17;;;;;;;1.25;1.15;;;;;;;;;;5093748;28;20035;-76
2023/08/29 13:50:45;;;;;;;6.85;1.30;;;;;;;;;;5093511;28;20097;-76
2023/08/29 13:53:11;;;;;;;1.60;1.10;;;;;;;;;;5093133;28;20028;-76
2023/08/29 13:55:37;;;;;;;1.73;1.00;;;;;;;;;;5093293;28;20077;-76
2023/08/29 13:58:03;;;;;;;2.22;1.00;;;;;;;;;;5093395;28;20020;-76
2023/08/29 14:00:28;;;;;;;1.65;1.15;;;;;;;;;;5093180;28;20093;-76
2023/08/29 14:02:53;;;;;;;3.05;1.10;;;;;;;;;;5093536;28;20023;-77
2023/08/29 14:05:19;;;;;;;2.78;1.13;;;;;;;;;;5093278;28;20410;-76
2023/08/29 14:07:45;;;;;;;1.30;0.90;;;;;;;;;;5093948;28;20020;-76
2023/08/29 14:10:10;;;;;;;2.05;0.90;;;;;;;;;;5093535;28;20028;-76
2023/08/29 14:12:35;;;;;;;1.90;1.10;;;;;;;;;;5094819;28;20020;-76
2023/08/29 14:15:01;;;;;;;1.20;0.98;;;;;;;;;;5093283;28;20028;-76
2023/08/29 14:17:26;;;;;;;2.03;1.27;;;;;;;;;;5093887;28;20031;-77
2023/08/29 14:19:52;;;;;;;3.97;1.10;;;;;;;;;;5093345;28;20106;-76
2023/08/29 14:22:17;;;;;;;1.77;0.95;;;;;;;;;;5076000;28;20024;-76
2023/08/29 14:24:44;;;;;;;2.88;1.35;;;;;;;;;;5094216;28;20052;-76
2023/08/29 14:27:09;;;;;;;2.90;1.60;;;;;;;;;;5075769;28;20101;-76
2023/08/29 14:29:34;;;;;;;1.42;1.15;;;;;;;;;;5092833;28;20070;-76
2023/08/29 14:32:00;;;;;;;2.17;1.17;;;;;;;;;;5092631;28;20077;-76
2023/08/29 14:34:25;;;;;;;3.30;1.33;;;;;;;;;;5092664;28;20081;-76
2023/08/29 14:36:51;;;;;;;2.20;1.33;;;;;;;;;;5093977;28;20106;-76